sensor_id;sensor_type;location;lat;lon;timestamp;P1;durP1;ratioP1;P2;durP2;ratioP2
51260;SDS011;61705;46.228;24.812;2023-05-31T00:01:05;10.98;;;6.00;;
51260;SDS011;61705;46.228;24.812;2023-05-31T00:03:32;11.32;;;6.05;;
51260;SDS011;61705;46.228;24.812;2023-05-31T00:05:59;14.07;;;6.05;;
51260;SDS011;61705;46.228;24.812;2023-05-31T00:08:26;12.48;;;7.07;;
51260;SDS011;61705;46.228;24.812;2023-05-31T00:10:53;10.23;;;6.40;;
51260;SDS011;61705;46.228;24.812;2023-05-31T00:13:19;20.00;;;7.75;;
51260;SDS011;61705;46.228;24.812;2023-05-31T00:15:46;16.75;;;7.97;;
51260;SDS011;61705;46.228;24.812;2023-05-31T00:18:13;14.85;;;8.20;;
51260;SDS011;61705;46.228;24.812;2023-05-31T00:20:39;12.75;;;7.95;;
51260;SDS011;61705;46.228;24.812;2023-05-31T00:23:06;12.38;;;8.27;;
51260;SDS011;61705;46.228;24.812;2023-05-31T00:25:33;18.95;;;9.68;;
51260;SDS011;61705;46.228;24.812;2023-05-31T00:28:00;20.77;;;9.25;;
51260;SDS011;61705;46.228;24.812;2023-05-31T00:30:26;15.07;;;9.65;;
51260;SDS011;61705;46.228;24.812;2023-05-31T00:32:53;19.85;;;10.65;;
51260;SDS011;61705;46.228;24.812;2023-05-31T00:35:20;17.65;;;10.43;;
51260;SDS011;61705;46.228;24.812;2023-05-31T00:37:46;16.25;;;9.48;;
51260;SDS011;61705;46.228;24.812;2023-05-31T00:40:13;15.48;;;8.88;;
51260;SDS011;61705;46.228;24.812;2023-05-31T00:42:40;15.00;;;8.63;;
51260;SDS011;61705;46.228;24.812;2023-05-31T00:45:07;16.73;;;8.73;;
51260;SDS011;61705;46.228;24.812;2023-05-31T00:47:37;17.65;;;8.18;;
51260;SDS011;61705;46.228;24.812;2023-05-31T00:50:04;12.63;;;7.68;;
51260;SDS011;61705;46.228;24.812;2023-05-31T00:52:31;12.30;;;7.43;;
51260;SDS011;61705;46.228;24.812;2023-05-31T00:54:59;13.70;;;7.45;;
51260;SDS011;61705;46.228;24.812;2023-05-31T00:57:26;11.27;;;7.55;;
51260;SDS011;61705;46.228;24.812;2023-05-31T00:59:53;13.63;;;7.70;;
51260;SDS011;61705;46.228;24.812;2023-05-31T01:02:20;12.20;;;7.55;;
51260;SDS011;61705;46.228;24.812;2023-05-31T01:04:47;14.95;;;9.60;;
51260;SDS011;61705;46.228;24.812;2023-05-31T01:07:14;18.38;;;11.07;;
51260;SDS011;61705;46.228;24.812;2023-05-31T01:09:41;20.73;;;13.68;;
51260;SDS011;61705;46.228;24.812;2023-05-31T01:12:13;22.90;;;13.70;;
51260;SDS011;61705;46.228;24.812;2023-05-31T01:15:05;19.50;;;13.27;;
51260;SDS011;61705;46.228;24.812;2023-05-31T01:20:20;15.13;;;9.48;;
51260;SDS011;61705;46.228;24.812;2023-05-31T01:25:50;12.27;;;6.95;;
51260;SDS011;61705;46.228;24.812;2023-05-31T01:28:20;16.23;;;8.45;;
51260;SDS011;61705;46.228;24.812;2023-05-31T01:30:49;11.05;;;7.35;;
51260;SDS011;61705;46.228;24.812;2023-05-31T01:33:17;13.68;;;8.18;;
51260;SDS011;61705;46.228;24.812;2023-05-31T01:35:44;11.60;;;7.70;;
51260;SDS011;61705;46.228;24.812;2023-05-31T01:38:11;12.80;;;7.63;;
51260;SDS011;61705;46.228;24.812;2023-05-31T01:40:37;12.98;;;7.72;;
51260;SDS011;61705;46.228;24.812;2023-05-31T01:43:05;14.20;;;8.43;;
51260;SDS011;61705;46.228;24.812;2023-05-31T01:45:33;13.93;;;8.10;;
51260;SDS011;61705;46.228;24.812;2023-05-31T01:48:02;14.73;;;7.53;;
51260;SDS011;61705;46.228;24.812;2023-05-31T01:50:33;13.02;;;7.95;;
51260;SDS011;61705;46.228;24.812;2023-05-31T01:53:04;11.40;;;7.40;;
51260;SDS011;61705;46.228;24.812;2023-05-31T01:55:32;15.93;;;7.40;;
51260;SDS011;61705;46.228;24.812;2023-05-31T01:57:58;15.43;;;8.50;;
51260;SDS011;61705;46.228;24.812;2023-05-31T02:00:27;14.48;;;7.30;;
51260;SDS011;61705;46.228;24.812;2023-05-31T02:02:56;12.00;;;7.40;;
51260;SDS011;61705;46.228;24.812;2023-05-31T02:05:24;13.57;;;7.72;;
51260;SDS011;61705;46.228;24.812;2023-05-31T02:07:50;15.38;;;8.13;;
51260;SDS011;61705;46.228;24.812;2023-05-31T02:10:18;16.45;;;8.57;;
51260;SDS011;61705;46.228;24.812;2023-05-31T02:12:44;16.55;;;9.18;;
51260;SDS011;61705;46.228;24.812;2023-05-31T02:15:11;14.63;;;10.35;;
51260;SDS011;61705;46.228;24.812;2023-05-31T02:17:40;18.23;;;11.10;;
51260;SDS011;61705;46.228;24.812;2023-05-31T02:20:10;23.02;;;12.90;;
51260;SDS011;61705;46.228;24.812;2023-05-31T02:22:41;19.25;;;12.40;;
51260;SDS011;61705;46.228;24.812;2023-05-31T02:25:09;17.73;;;10.80;;
51260;SDS011;61705;46.228;24.812;2023-05-31T02:27:36;17.58;;;11.70;;
51260;SDS011;61705;46.228;24.812;2023-05-31T02:30:04;23.60;;;13.27;;
51260;SDS011;61705;46.228;24.812;2023-05-31T02:32:32;21.02;;;12.05;;
51260;SDS011;61705;46.228;24.812;2023-05-31T02:35:05;23.08;;;13.50;;
51260;SDS011;61705;46.228;24.812;2023-05-31T02:37:33;19.75;;;10.82;;
51260;SDS011;61705;46.228;24.812;2023-05-31T02:40:01;28.13;;;12.60;;
51260;SDS011;61705;46.228;24.812;2023-05-31T02:42:43;34.45;;;12.70;;
51260;SDS011;61705;46.228;24.812;2023-05-31T02:45:10;25.98;;;11.38;;
51260;SDS011;61705;46.228;24.812;2023-05-31T02:47:37;20.65;;;11.55;;
51260;SDS011;61705;46.228;24.812;2023-05-31T02:50:05;23.90;;;10.82;;
51260;SDS011;61705;46.228;24.812;2023-05-31T02:52:34;19.73;;;10.02;;
51260;SDS011;61705;46.228;24.812;2023-05-31T02:55:01;22.88;;;10.70;;
51260;SDS011;61705;46.228;24.812;2023-05-31T02:57:28;24.73;;;10.27;;
51260;SDS011;61705;46.228;24.812;2023-05-31T02:59:57;17.60;;;10.82;;
51260;SDS011;61705;46.228;24.812;2023-05-31T03:02:24;22.60;;;11.18;;
51260;SDS011;61705;46.228;24.812;2023-05-31T03:04:52;15.70;;;9.48;;
51260;SDS011;61705;46.228;24.812;2023-05-31T03:07:19;19.90;;;10.00;;
51260;SDS011;61705;46.228;24.812;2023-05-31T03:09:45;36.42;;;15.57;;
51260;SDS011;61705;46.228;24.812;2023-05-31T03:12:12;22.67;;;9.88;;
51260;SDS011;61705;46.228;24.812;2023-05-31T03:14:39;21.48;;;8.95;;
51260;SDS011;61705;46.228;24.812;2023-05-31T03:17:06;21.27;;;9.30;;
51260;SDS011;61705;46.228;24.812;2023-05-31T03:19:34;21.80;;;10.60;;
51260;SDS011;61705;46.228;24.812;2023-05-31T03:22:01;17.65;;;9.75;;
51260;SDS011;61705;46.228;24.812;2023-05-31T03:24:34;15.90;;;9.45;;
51260;SDS011;61705;46.228;24.812;2023-05-31T03:27:01;24.15;;;11.00;;
51260;SDS011;61705;46.228;24.812;2023-05-31T03:29:36;17.25;;;9.30;;
51260;SDS011;61705;46.228;24.812;2023-05-31T03:32:07;20.98;;;10.32;;
51260;SDS011;61705;46.228;24.812;2023-05-31T03:34:34;24.77;;;10.75;;
51260;SDS011;61705;46.228;24.812;2023-05-31T03:37:01;27.52;;;10.05;;
51260;SDS011;61705;46.228;24.812;2023-05-31T03:39:29;17.83;;;9.40;;
51260;SDS011;61705;46.228;24.812;2023-05-31T03:41:55;19.45;;;9.93;;
51260;SDS011;61705;46.228;24.812;2023-05-31T03:44:22;21.30;;;10.02;;
51260;SDS011;61705;46.228;24.812;2023-05-31T03:46:49;16.92;;;9.40;;
51260;SDS011;61705;46.228;24.812;2023-05-31T03:49:16;26.77;;;10.60;;
51260;SDS011;61705;46.228;24.812;2023-05-31T03:52:00;20.70;;;9.53;;
51260;SDS011;61705;46.228;24.812;2023-05-31T03:54:27;17.30;;;9.52;;
51260;SDS011;61705;46.228;24.812;2023-05-31T03:56:55;17.02;;;8.63;;
51260;SDS011;61705;46.228;24.812;2023-05-31T03:59:41;20.70;;;9.40;;
51260;SDS011;61705;46.228;24.812;2023-05-31T04:02:08;16.52;;;9.35;;
51260;SDS011;61705;46.228;24.812;2023-05-31T04:07:08;16.02;;;8.75;;
51260;SDS011;61705;46.228;24.812;2023-05-31T04:09:46;16.38;;;9.43;;
51260;SDS011;61705;46.228;24.812;2023-05-31T04:12:13;19.35;;;9.73;;
51260;SDS011;61705;46.228;24.812;2023-05-31T04:14:39;18.00;;;8.85;;
51260;SDS011;61705;46.228;24.812;2023-05-31T04:17:06;19.63;;;9.60;;
51260;SDS011;61705;46.228;24.812;2023-05-31T04:19:33;15.07;;;8.57;;
51260;SDS011;61705;46.228;24.812;2023-05-31T04:22:00;16.02;;;8.55;;
51260;SDS011;61705;46.228;24.812;2023-05-31T04:24:27;13.85;;;8.52;;
51260;SDS011;61705;46.228;24.812;2023-05-31T04:26:54;15.80;;;8.05;;
51260;SDS011;61705;46.228;24.812;2023-05-31T04:29:21;20.60;;;9.10;;
51260;SDS011;61705;46.228;24.812;2023-05-31T04:31:48;25.92;;;10.43;;
51260;SDS011;61705;46.228;24.812;2023-05-31T04:34:17;17.48;;;8.93;;
51260;SDS011;61705;46.228;24.812;2023-05-31T04:36:46;20.13;;;9.43;;
51260;SDS011;61705;46.228;24.812;2023-05-31T04:39:16;16.02;;;8.25;;
51260;SDS011;61705;46.228;24.812;2023-05-31T04:41:43;24.10;;;8.20;;
51260;SDS011;61705;46.228;24.812;2023-05-31T04:44:10;26.27;;;8.82;;
51260;SDS011;61705;46.228;24.812;2023-05-31T04:46:37;16.63;;;8.60;;
51260;SDS011;61705;46.228;24.812;2023-05-31T04:49:10;20.20;;;9.27;;
51260;SDS011;61705;46.228;24.812;2023-05-31T04:51:37;15.98;;;7.90;;
51260;SDS011;61705;46.228;24.812;2023-05-31T04:54:04;23.08;;;10.50;;
51260;SDS011;61705;46.228;24.812;2023-05-31T04:56:32;17.40;;;7.85;;
51260;SDS011;61705;46.228;24.812;2023-05-31T04:58:59;17.70;;;7.32;;
51260;SDS011;61705;46.228;24.812;2023-05-31T05:01:26;13.40;;;6.78;;
51260;SDS011;61705;46.228;24.812;2023-05-31T05:03:53;13.18;;;7.47;;
51260;SDS011;61705;46.228;24.812;2023-05-31T05:06:20;14.68;;;7.20;;
51260;SDS011;61705;46.228;24.812;2023-05-31T05:08:48;14.30;;;8.05;;
51260;SDS011;61705;46.228;24.812;2023-05-31T05:11:15;22.48;;;9.13;;
51260;SDS011;61705;46.228;24.812;2023-05-31T05:13:42;15.07;;;7.55;;
51260;SDS011;61705;46.228;24.812;2023-05-31T05:16:09;14.30;;;8.40;;
51260;SDS011;61705;46.228;24.812;2023-05-31T05:18:36;15.50;;;7.65;;
51260;SDS011;61705;46.228;24.812;2023-05-31T05:21:03;13.93;;;7.45;;
51260;SDS011;61705;46.228;24.812;2023-05-31T05:23:30;18.50;;;7.53;;
51260;SDS011;61705;46.228;24.812;2023-05-31T05:25:58;15.32;;;7.80;;
51260;SDS011;61705;46.228;24.812;2023-05-31T05:28:24;12.93;;;7.40;;
51260;SDS011;61705;46.228;24.812;2023-05-31T05:30:51;14.52;;;7.72;;
51260;SDS011;61705;46.228;24.812;2023-05-31T05:33:21;17.73;;;8.48;;
51260;SDS011;61705;46.228;24.812;2023-05-31T05:35:48;14.82;;;7.18;;
51260;SDS011;61705;46.228;24.812;2023-05-31T05:38:15;17.17;;;7.80;;
51260;SDS011;61705;46.228;24.812;2023-05-31T05:40:41;12.80;;;6.93;;
51260;SDS011;61705;46.228;24.812;2023-05-31T05:43:08;14.60;;;7.00;;
51260;SDS011;61705;46.228;24.812;2023-05-31T05:45:36;15.65;;;7.50;;
51260;SDS011;61705;46.228;24.812;2023-05-31T05:48:02;16.25;;;11.20;;
51260;SDS011;61705;46.228;24.812;2023-05-31T05:50:29;14.90;;;7.53;;
51260;SDS011;61705;46.228;24.812;2023-05-31T05:52:56;11.35;;;7.10;;
51260;SDS011;61705;46.228;24.812;2023-05-31T05:55:23;10.27;;;6.65;;
51260;SDS011;61705;46.228;24.812;2023-05-31T05:57:50;14.93;;;7.45;;
51260;SDS011;61705;46.228;24.812;2023-05-31T06:00:19;13.95;;;6.53;;
51260;SDS011;61705;46.228;24.812;2023-05-31T06:02:47;12.50;;;6.43;;
51260;SDS011;61705;46.228;24.812;2023-05-31T06:05:14;11.27;;;7.15;;
51260;SDS011;61705;46.228;24.812;2023-05-31T06:07:41;17.50;;;8.48;;
51260;SDS011;61705;46.228;24.812;2023-05-31T06:10:08;16.52;;;7.28;;
51260;SDS011;61705;46.228;24.812;2023-05-31T06:12:35;21.08;;;10.73;;
51260;SDS011;61705;46.228;24.812;2023-05-31T06:15:02;15.15;;;8.35;;
51260;SDS011;61705;46.228;24.812;2023-05-31T06:17:29;15.13;;;7.90;;
51260;SDS011;61705;46.228;24.812;2023-05-31T06:19:56;16.17;;;8.02;;
51260;SDS011;61705;46.228;24.812;2023-05-31T06:22:23;15.55;;;8.57;;
51260;SDS011;61705;46.228;24.812;2023-05-31T06:24:49;14.00;;;7.93;;
51260;SDS011;61705;46.228;24.812;2023-05-31T06:27:16;16.15;;;7.40;;
51260;SDS011;61705;46.228;24.812;2023-05-31T06:29:43;14.18;;;6.97;;
51260;SDS011;61705;46.228;24.812;2023-05-31T06:32:10;19.98;;;6.85;;
51260;SDS011;61705;46.228;24.812;2023-05-31T06:34:39;17.50;;;8.25;;
51260;SDS011;61705;46.228;24.812;2023-05-31T06:37:06;20.58;;;9.23;;
51260;SDS011;61705;46.228;24.812;2023-05-31T06:39:35;19.85;;;9.93;;
51260;SDS011;61705;46.228;24.812;2023-05-31T06:42:01;15.25;;;8.15;;
51260;SDS011;61705;46.228;24.812;2023-05-31T06:44:28;16.30;;;9.15;;
51260;SDS011;61705;46.228;24.812;2023-05-31T06:46:56;14.25;;;8.75;;
51260;SDS011;61705;46.228;24.812;2023-05-31T06:49:22;20.67;;;9.82;;
51260;SDS011;61705;46.228;24.812;2023-05-31T06:51:49;18.25;;;8.50;;
51260;SDS011;61705;46.228;24.812;2023-05-31T06:54:16;13.27;;;6.95;;
51260;SDS011;61705;46.228;24.812;2023-05-31T06:56:43;12.75;;;7.22;;
51260;SDS011;61705;46.228;24.812;2023-05-31T06:59:09;13.80;;;6.85;;
51260;SDS011;61705;46.228;24.812;2023-05-31T07:01:36;20.92;;;8.23;;
51260;SDS011;61705;46.228;24.812;2023-05-31T07:04:03;28.95;;;8.70;;
51260;SDS011;61705;46.228;24.812;2023-05-31T07:06:30;20.85;;;12.00;;
51260;SDS011;61705;46.228;24.812;2023-05-31T07:08:56;19.02;;;8.57;;
51260;SDS011;61705;46.228;24.812;2023-05-31T07:11:24;16.10;;;7.28;;
51260;SDS011;61705;46.228;24.812;2023-05-31T07:13:51;15.05;;;7.43;;
51260;SDS011;61705;46.228;24.812;2023-05-31T07:16:18;17.08;;;8.75;;
51260;SDS011;61705;46.228;24.812;2023-05-31T07:18:45;13.95;;;7.32;;
51260;SDS011;61705;46.228;24.812;2023-05-31T07:21:13;19.92;;;10.95;;
51260;SDS011;61705;46.228;24.812;2023-05-31T07:23:39;18.83;;;9.55;;
51260;SDS011;61705;46.228;24.812;2023-05-31T07:26:06;67.80;;;44.80;;
51260;SDS011;61705;46.228;24.812;2023-05-31T07:28:33;41.92;;;19.75;;
51260;SDS011;61705;46.228;24.812;2023-05-31T07:31:00;27.30;;;12.95;;
51260;SDS011;61705;46.228;24.812;2023-05-31T07:33:27;12.68;;;8.68;;
51260;SDS011;61705;46.228;24.812;2023-05-31T07:35:59;18.05;;;11.40;;
51260;SDS011;61705;46.228;24.812;2023-05-31T07:38:26;13.48;;;7.50;;
51260;SDS011;61705;46.228;24.812;2023-05-31T07:40:54;11.95;;;6.22;;
51260;SDS011;61705;46.228;24.812;2023-05-31T07:43:21;13.02;;;6.82;;
51260;SDS011;61705;46.228;24.812;2023-05-31T07:45:49;16.67;;;7.63;;
51260;SDS011;61705;46.228;24.812;2023-05-31T07:48:17;14.20;;;6.50;;
51260;SDS011;61705;46.228;24.812;2023-05-31T07:50:44;12.55;;;7.07;;
51260;SDS011;61705;46.228;24.812;2023-05-31T07:53:12;9.38;;;5.65;;
51260;SDS011;61705;46.228;24.812;2023-05-31T07:55:40;17.38;;;7.18;;
51260;SDS011;61705;46.228;24.812;2023-05-31T07:58:06;11.85;;;7.07;;
51260;SDS011;61705;46.228;24.812;2023-05-31T08:00:33;16.05;;;7.25;;
51260;SDS011;61705;46.228;24.812;2023-05-31T08:03:00;11.02;;;5.95;;
51260;SDS011;61705;46.228;24.812;2023-05-31T08:05:28;17.50;;;6.35;;
51260;SDS011;61705;46.228;24.812;2023-05-31T08:07:54;16.88;;;5.88;;
51260;SDS011;61705;46.228;24.812;2023-05-31T08:10:21;28.50;;;20.48;;
51260;SDS011;61705;46.228;24.812;2023-05-31T08:12:48;10.43;;;5.68;;
51260;SDS011;61705;46.228;24.812;2023-05-31T08:15:15;10.55;;;5.70;;
51260;SDS011;61705;46.228;24.812;2023-05-31T08:17:42;12.68;;;6.28;;
51260;SDS011;61705;46.228;24.812;2023-05-31T08:20:10;11.27;;;5.38;;
51260;SDS011;61705;46.228;24.812;2023-05-31T08:22:38;13.93;;;5.60;;
51260;SDS011;61705;46.228;24.812;2023-05-31T08:25:07;16.73;;;6.15;;
51260;SDS011;61705;46.228;24.812;2023-05-31T08:27:35;13.32;;;6.50;;
51260;SDS011;61705;46.228;24.812;2023-05-31T08:30:02;22.73;;;5.97;;
51260;SDS011;61705;46.228;24.812;2023-05-31T08:32:30;13.30;;;6.10;;
51260;SDS011;61705;46.228;24.812;2023-05-31T08:34:57;11.18;;;5.22;;
51260;SDS011;61705;46.228;24.812;2023-05-31T08:37:24;16.65;;;5.25;;
51260;SDS011;61705;46.228;24.812;2023-05-31T08:39:50;9.57;;;4.72;;
51260;SDS011;61705;46.228;24.812;2023-05-31T08:45:17;8.82;;;4.93;;
51260;SDS011;61705;46.228;24.812;2023-05-31T08:47:45;9.85;;;4.80;;
51260;SDS011;61705;46.228;24.812;2023-05-31T08:50:20;9.70;;;4.55;;
51260;SDS011;61705;46.228;24.812;2023-05-31T08:52:47;8.38;;;4.30;;
51260;SDS011;61705;46.228;24.812;2023-05-31T08:55:15;10.35;;;4.75;;
51260;SDS011;61705;46.228;24.812;2023-05-31T08:57:43;12.70;;;6.15;;
51260;SDS011;61705;46.228;24.812;2023-05-31T09:00:11;9.30;;;4.63;;
51260;SDS011;61705;46.228;24.812;2023-05-31T09:02:39;31.25;;;6.00;;
51260;SDS011;61705;46.228;24.812;2023-05-31T09:05:07;10.18;;;5.32;;
51260;SDS011;61705;46.228;24.812;2023-05-31T09:07:38;9.57;;;4.53;;
51260;SDS011;61705;46.228;24.812;2023-05-31T09:10:05;9.65;;;4.93;;
51260;SDS011;61705;46.228;24.812;2023-05-31T09:12:37;7.00;;;4.18;;
51260;SDS011;61705;46.228;24.812;2023-05-31T09:15:04;11.43;;;4.55;;
51260;SDS011;61705;46.228;24.812;2023-05-31T09:17:32;10.15;;;4.22;;
51260;SDS011;61705;46.228;24.812;2023-05-31T09:19:59;14.07;;;4.85;;
51260;SDS011;61705;46.228;24.812;2023-05-31T09:22:27;9.88;;;4.20;;
51260;SDS011;61705;46.228;24.812;2023-05-31T09:24:57;14.23;;;4.20;;
51260;SDS011;61705;46.228;24.812;2023-05-31T09:27:25;17.05;;;4.78;;
51260;SDS011;61705;46.228;24.812;2023-05-31T09:30:03;11.10;;;3.60;;
51260;SDS011;61705;46.228;24.812;2023-05-31T09:32:33;7.28;;;4.05;;
51260;SDS011;61705;46.228;24.812;2023-05-31T09:35:14;10.60;;;3.97;;
51260;SDS011;61705;46.228;24.812;2023-05-31T09:37:43;9.27;;;3.80;;
51260;SDS011;61705;46.228;24.812;2023-05-31T09:40:29;10.82;;;3.72;;
51260;SDS011;61705;46.228;24.812;2023-05-31T09:43:00;8.57;;;3.65;;
51260;SDS011;61705;46.228;24.812;2023-05-31T09:45:27;9.13;;;3.92;;
51260;SDS011;61705;46.228;24.812;2023-05-31T09:47:57;7.50;;;3.67;;
51260;SDS011;61705;46.228;24.812;2023-05-31T09:50:23;8.70;;;4.07;;
51260;SDS011;61705;46.228;24.812;2023-05-31T09:52:56;9.77;;;4.38;;
51260;SDS011;61705;46.228;24.812;2023-05-31T09:55:24;9.02;;;4.70;;
51260;SDS011;61705;46.228;24.812;2023-05-31T09:58:06;11.45;;;4.60;;
51260;SDS011;61705;46.228;24.812;2023-05-31T10:00:33;13.82;;;4.55;;
51260;SDS011;61705;46.228;24.812;2023-05-31T10:03:00;8.07;;;4.57;;
51260;SDS011;61705;46.228;24.812;2023-05-31T10:05:29;9.48;;;3.80;;
51260;SDS011;61705;46.228;24.812;2023-05-31T10:07:56;7.70;;;3.80;;
51260;SDS011;61705;46.228;24.812;2023-05-31T10:10:23;10.57;;;4.63;;
51260;SDS011;61705;46.228;24.812;2023-05-31T10:12:54;12.95;;;4.72;;
51260;SDS011;61705;46.228;24.812;2023-05-31T10:15:26;16.52;;;6.05;;
51260;SDS011;61705;46.228;24.812;2023-05-31T10:17:54;9.75;;;3.90;;
51260;SDS011;61705;46.228;24.812;2023-05-31T10:23:21;6.80;;;3.90;;
51260;SDS011;61705;46.228;24.812;2023-05-31T10:28:44;9.05;;;4.05;;
51260;SDS011;61705;46.228;24.812;2023-05-31T10:31:11;11.98;;;4.07;;
51260;SDS011;61705;46.228;24.812;2023-05-31T10:33:40;10.40;;;3.72;;
51260;SDS011;61705;46.228;24.812;2023-05-31T10:36:14;13.13;;;5.15;;
51260;SDS011;61705;46.228;24.812;2023-05-31T10:38:51;9.10;;;5.60;;
51260;SDS011;61705;46.228;24.812;2023-05-31T10:41:22;11.07;;;4.20;;
51260;SDS011;61705;46.228;24.812;2023-05-31T10:43:56;12.13;;;4.00;;
51260;SDS011;61705;46.228;24.812;2023-05-31T10:46:26;12.82;;;4.72;;
51260;SDS011;61705;46.228;24.812;2023-05-31T10:48:57;18.25;;;8.45;;
51260;SDS011;61705;46.228;24.812;2023-05-31T10:51:44;11.25;;;4.28;;
51260;SDS011;61705;46.228;24.812;2023-05-31T10:56:55;7.13;;;4.00;;
51260;SDS011;61705;46.228;24.812;2023-05-31T10:59:25;12.93;;;4.47;;
51260;SDS011;61705;46.228;24.812;2023-05-31T11:01:52;11.05;;;4.60;;
51260;SDS011;61705;46.228;24.812;2023-05-31T11:04:20;8.35;;;4.20;;
51260;SDS011;61705;46.228;24.812;2023-05-31T11:06:51;10.85;;;4.47;;
51260;SDS011;61705;46.228;24.812;2023-05-31T11:09:19;10.82;;;4.68;;
51260;SDS011;61705;46.228;24.812;2023-05-31T11:11:47;8.07;;;4.30;;
51260;SDS011;61705;46.228;24.812;2023-05-31T11:19:30;8.93;;;4.80;;
51260;SDS011;61705;46.228;24.812;2023-05-31T11:22:13;7.68;;;4.03;;
51260;SDS011;61705;46.228;24.812;2023-05-31T11:27:43;10.85;;;4.45;;
51260;SDS011;61705;46.228;24.812;2023-05-31T11:30:17;13.80;;;5.30;;
51260;SDS011;61705;46.228;24.812;2023-05-31T11:35:17;14.38;;;5.43;;
51260;SDS011;61705;46.228;24.812;2023-05-31T11:37:44;6.63;;;4.22;;
51260;SDS011;61705;46.228;24.812;2023-05-31T11:40:12;8.13;;;4.30;;
51260;SDS011;61705;46.228;24.812;2023-05-31T11:42:41;9.15;;;4.32;;
51260;SDS011;61705;46.228;24.812;2023-05-31T11:45:10;9.45;;;4.22;;
51260;SDS011;61705;46.228;24.812;2023-05-31T11:50:10;9.00;;;3.95;;
51260;SDS011;61705;46.228;24.812;2023-05-31T11:52:44;11.70;;;4.45;;
51260;SDS011;61705;46.228;24.812;2023-05-31T11:55:14;10.15;;;4.78;;
51260;SDS011;61705;46.228;24.812;2023-05-31T11:57:44;7.07;;;3.90;;
51260;SDS011;61705;46.228;24.812;2023-05-31T12:00:14;10.18;;;5.93;;
51260;SDS011;61705;46.228;24.812;2023-05-31T12:02:42;9.57;;;5.00;;
51260;SDS011;61705;46.228;24.812;2023-05-31T12:05:11;8.82;;;4.20;;
51260;SDS011;61705;46.228;24.812;2023-05-31T12:07:39;13.43;;;5.93;;
51260;SDS011;61705;46.228;24.812;2023-05-31T12:10:06;6.50;;;4.00;;
51260;SDS011;61705;46.228;24.812;2023-05-31T12:12:34;9.95;;;4.30;;
51260;SDS011;61705;46.228;24.812;2023-05-31T12:15:02;12.27;;;4.72;;
51260;SDS011;61705;46.228;24.812;2023-05-31T12:17:30;10.57;;;4.75;;
51260;SDS011;61705;46.228;24.812;2023-05-31T12:19:57;15.27;;;5.13;;
51260;SDS011;61705;46.228;24.812;2023-05-31T12:22:25;11.30;;;5.72;;
51260;SDS011;61705;46.228;24.812;2023-05-31T12:24:53;12.23;;;4.90;;
51260;SDS011;61705;46.228;24.812;2023-05-31T12:27:23;9.38;;;4.25;;
51260;SDS011;61705;46.228;24.812;2023-05-31T12:30:15;16.30;;;6.03;;
51260;SDS011;61705;46.228;24.812;2023-05-31T12:32:44;22.90;;;5.68;;
51260;SDS011;61705;46.228;24.812;2023-05-31T12:35:12;17.73;;;5.53;;
51260;SDS011;61705;46.228;24.812;2023-05-31T12:37:40;13.50;;;5.05;;
51260;SDS011;61705;46.228;24.812;2023-05-31T12:40:16;20.08;;;5.70;;
51260;SDS011;61705;46.228;24.812;2023-05-31T12:42:52;21.20;;;6.85;;
51260;SDS011;61705;46.228;24.812;2023-05-31T12:45:26;22.15;;;7.10;;
51260;SDS011;61705;46.228;24.812;2023-05-31T12:47:57;20.63;;;7.15;;
51260;SDS011;61705;46.228;24.812;2023-05-31T12:50:28;40.78;;;9.77;;
51260;SDS011;61705;46.228;24.812;2023-05-31T12:52:56;32.20;;;11.10;;
51260;SDS011;61705;46.228;24.812;2023-05-31T12:55:23;27.35;;;9.27;;
51260;SDS011;61705;46.228;24.812;2023-05-31T12:57:51;33.15;;;9.82;;
51260;SDS011;61705;46.228;24.812;2023-05-31T13:02:51;15.05;;;7.35;;
51260;SDS011;61705;46.228;24.812;2023-05-31T13:05:21;18.95;;;8.55;;
51260;SDS011;61705;46.228;24.812;2023-05-31T13:07:48;29.85;;;12.18;;
51260;SDS011;61705;46.228;24.812;2023-05-31T13:10:17;23.80;;;13.52;;
51260;SDS011;61705;46.228;24.812;2023-05-31T13:12:44;23.63;;;11.82;;
51260;SDS011;61705;46.228;24.812;2023-05-31T13:15:11;24.02;;;11.10;;
51260;SDS011;61705;46.228;24.812;2023-05-31T13:17:41;15.38;;;10.70;;
51260;SDS011;61705;46.228;24.812;2023-05-31T13:20:13;20.02;;;11.65;;
51260;SDS011;61705;46.228;24.812;2023-05-31T13:22:46;27.90;;;15.77;;
51260;SDS011;61705;46.228;24.812;2023-05-31T13:25:14;20.55;;;12.23;;
51260;SDS011;61705;46.228;24.812;2023-05-31T13:27:41;19.33;;;11.57;;
51260;SDS011;61705;46.228;24.812;2023-05-31T13:30:11;22.58;;;10.68;;
51260;SDS011;61705;46.228;24.812;2023-05-31T13:32:40;16.40;;;10.57;;
51260;SDS011;61705;46.228;24.812;2023-05-31T13:35:27;22.35;;;12.02;;
51260;SDS011;61705;46.228;24.812;2023-05-31T13:38:04;21.08;;;11.57;;
51260;SDS011;61705;46.228;24.812;2023-05-31T13:40:34;18.05;;;10.35;;
51260;SDS011;61705;46.228;24.812;2023-05-31T13:43:03;20.58;;;12.27;;
51260;SDS011;61705;46.228;24.812;2023-05-31T13:45:33;13.50;;;9.70;;
51260;SDS011;61705;46.228;24.812;2023-05-31T13:48:00;17.00;;;10.45;;
51260;SDS011;61705;46.228;24.812;2023-05-31T13:50:27;17.63;;;12.25;;
51260;SDS011;61705;46.228;24.812;2023-05-31T13:52:57;21.15;;;13.35;;
51260;SDS011;61705;46.228;24.812;2023-05-31T13:55:24;19.55;;;13.18;;
51260;SDS011;61705;46.228;24.812;2023-05-31T13:57:50;16.65;;;11.23;;
51260;SDS011;61705;46.228;24.812;2023-05-31T14:00:17;14.57;;;11.13;;
51260;SDS011;61705;46.228;24.812;2023-05-31T14:02:45;18.02;;;11.35;;
51260;SDS011;61705;46.228;24.812;2023-05-31T14:05:13;18.02;;;10.35;;
51260;SDS011;61705;46.228;24.812;2023-05-31T14:07:40;21.20;;;12.30;;
51260;SDS011;61705;46.228;24.812;2023-05-31T14:10:07;18.70;;;9.20;;
51260;SDS011;61705;46.228;24.812;2023-05-31T14:12:34;16.10;;;9.68;;
51260;SDS011;61705;46.228;24.812;2023-05-31T14:15:01;17.90;;;11.23;;
51260;SDS011;61705;46.228;24.812;2023-05-31T14:17:28;17.73;;;9.38;;
51260;SDS011;61705;46.228;24.812;2023-05-31T14:19:55;21.10;;;12.10;;
51260;SDS011;61705;46.228;24.812;2023-05-31T14:22:22;18.98;;;10.38;;
51260;SDS011;61705;46.228;24.812;2023-05-31T14:24:51;20.75;;;12.57;;
51260;SDS011;61705;46.228;24.812;2023-05-31T14:27:22;18.50;;;10.07;;
51260;SDS011;61705;46.228;24.812;2023-05-31T14:29:51;18.20;;;9.95;;
51260;SDS011;61705;46.228;24.812;2023-05-31T14:32:18;16.70;;;9.27;;
51260;SDS011;61705;46.228;24.812;2023-05-31T14:34:46;13.20;;;9.32;;
51260;SDS011;61705;46.228;24.812;2023-05-31T14:37:13;14.88;;;9.23;;
51260;SDS011;61705;46.228;24.812;2023-05-31T14:39:44;13.35;;;8.60;;
51260;SDS011;61705;46.228;24.812;2023-05-31T14:42:11;16.65;;;10.00;;
51260;SDS011;61705;46.228;24.812;2023-05-31T14:44:38;17.42;;;11.55;;
51260;SDS011;61705;46.228;24.812;2023-05-31T14:47:05;17.30;;;9.48;;
51260;SDS011;61705;46.228;24.812;2023-05-31T14:49:32;19.25;;;9.63;;
51260;SDS011;61705;46.228;24.812;2023-05-31T14:51:58;14.82;;;9.48;;
51260;SDS011;61705;46.228;24.812;2023-05-31T14:54:25;13.05;;;9.25;;
51260;SDS011;61705;46.228;24.812;2023-05-31T14:56:55;14.32;;;8.77;;
51260;SDS011;61705;46.228;24.812;2023-05-31T14:59:24;15.77;;;9.05;;
51260;SDS011;61705;46.228;24.812;2023-05-31T15:01:57;15.07;;;8.60;;
51260;SDS011;61705;46.228;24.812;2023-05-31T15:04:26;14.05;;;9.30;;